sensor_id;sensor_type;location;lat;lon;timestamp;P1;durP1;ratioP1;P2;durP2;ratioP2
6973;SDS011;3527;52.376;8.990;2023-08-31T00:01:33;21.57;;;15.43;;
6973;SDS011;3527;52.376;8.990;2023-08-31T00:04:00;27.97;;;16.30;;
6973;SDS011;3527;52.376;8.990;2023-08-31T00:06:27;22.87;;;15.17;;
6973;SDS011;3527;52.376;8.990;2023-08-31T00:08:54;24.03;;;16.10;;
6973;SDS011;3527;52.376;8.990;2023-08-31T00:11:21;21.67;;;15.10;;
6973;SDS011;3527;52.376;8.990;2023-08-31T00:13:47;24.47;;;16.47;;
6973;SDS011;3527;52.376;8.990;2023-08-31T00:16:14;27.57;;;15.70;;
6973;SDS011;3527;52.376;8.990;2023-08-31T00:18:41;21.30;;;15.33;;
6973;SDS011;3527;52.376;8.990;2023-08-31T00:21:07;24.43;;;16.50;;
6973;SDS011;3527;52.376;8.990;2023-08-31T00:23:36;20.63;;;15.50;;
6973;SDS011;3527;52.376;8.990;2023-08-31T00:26:03;24.17;;;16.67;;
6973;SDS011;3527;52.376;8.990;2023-08-31T00:28:31;19.77;;;14.33;;
6973;SDS011;3527;52.376;8.990;2023-08-31T00:31:00;22.90;;;16.00;;
6973;SDS011;3527;52.376;8.990;2023-08-31T00:33:27;24.23;;;16.43;;
6973;SDS011;3527;52.376;8.990;2023-08-31T00:35:54;28.07;;;16.57;;
6973;SDS011;3527;52.376;8.990;2023-08-31T00:38:24;26.87;;;16.87;;
6973;SDS011;3527;52.376;8.990;2023-08-31T00:40:51;27.43;;;17.40;;
6973;SDS011;3527;52.376;8.990;2023-08-31T00:43:18;28.57;;;17.80;;
6973;SDS011;3527;52.376;8.990;2023-08-31T00:45:44;29.20;;;17.80;;
6973;SDS011;3527;52.376;8.990;2023-08-31T00:48:11;28.03;;;17.37;;
6973;SDS011;3527;52.376;8.990;2023-08-31T00:50:38;25.27;;;16.20;;
6973;SDS011;3527;52.376;8.990;2023-08-31T00:53:05;27.20;;;16.93;;
6973;SDS011;3527;52.376;8.990;2023-08-31T00:55:32;26.07;;;17.47;;
6973;SDS011;3527;52.376;8.990;2023-08-31T00:57:59;26.03;;;17.00;;
6973;SDS011;3527;52.376;8.990;2023-08-31T01:00:33;27.27;;;17.67;;
6973;SDS011;3527;52.376;8.990;2023-08-31T01:03:09;24.73;;;15.57;;
6973;SDS011;3527;52.376;8.990;2023-08-31T01:15:38;28.10;;;16.73;;
6973;SDS011;3527;52.376;8.990;2023-08-31T01:18:05;31.07;;;18.30;;
6973;SDS011;3527;52.376;8.990;2023-08-31T01:20:38;27.63;;;17.60;;
6973;SDS011;3527;52.376;8.990;2023-08-31T01:23:10;32.30;;;18.23;;
6973;SDS011;3527;52.376;8.990;2023-08-31T01:25:38;28.43;;;18.27;;
6973;SDS011;3527;52.376;8.990;2023-08-31T01:28:04;30.30;;;18.17;;
6973;SDS011;3527;52.376;8.990;2023-08-31T01:30:31;28.30;;;17.47;;
6973;SDS011;3527;52.376;8.990;2023-08-31T01:32:58;29.73;;;16.97;;
6973;SDS011;3527;52.376;8.990;2023-08-31T01:35:25;28.50;;;17.43;;
6973;SDS011;3527;52.376;8.990;2023-08-31T01:37:59;29.73;;;17.00;;
6973;SDS011;3527;52.376;8.990;2023-08-31T01:43:00;26.77;;;16.33;;
6973;SDS011;3527;52.376;8.990;2023-08-31T01:45:27;31.63;;;18.00;;
6973;SDS011;3527;52.376;8.990;2023-08-31T01:47:54;27.30;;;17.83;;
6973;SDS011;3527;52.376;8.990;2023-08-31T01:50:22;29.00;;;19.13;;
6973;SDS011;3527;52.376;8.990;2023-08-31T01:52:49;31.67;;;19.07;;
6973;SDS011;3527;52.376;8.990;2023-08-31T01:55:15;32.37;;;18.03;;
6973;SDS011;3527;52.376;8.990;2023-08-31T01:57:43;35.37;;;18.13;;
6973;SDS011;3527;52.376;8.990;2023-08-31T02:00:10;33.73;;;19.77;;
6973;SDS011;3527;52.376;8.990;2023-08-31T02:02:37;33.27;;;19.90;;
6973;SDS011;3527;52.376;8.990;2023-08-31T02:05:04;33.00;;;19.57;;
6973;SDS011;3527;52.376;8.990;2023-08-31T02:07:31;32.23;;;19.63;;
6973;SDS011;3527;52.376;8.990;2023-08-31T02:09:57;33.87;;;20.47;;
6973;SDS011;3527;52.376;8.990;2023-08-31T02:12:24;32.27;;;21.20;;
6973;SDS011;3527;52.376;8.990;2023-08-31T02:14:50;38.50;;;20.67;;
6973;SDS011;3527;52.376;8.990;2023-08-31T02:17:17;30.97;;;19.10;;
6973;SDS011;3527;52.376;8.990;2023-08-31T02:19:44;37.47;;;21.70;;
6973;SDS011;3527;52.376;8.990;2023-08-31T02:22:11;34.07;;;20.50;;
6973;SDS011;3527;52.376;8.990;2023-08-31T02:24:38;36.10;;;22.07;;
6973;SDS011;3527;52.376;8.990;2023-08-31T02:27:04;34.73;;;19.80;;
6973;SDS011;3527;52.376;8.990;2023-08-31T02:29:31;36.20;;;21.00;;
6973;SDS011;3527;52.376;8.990;2023-08-31T02:31:58;43.00;;;21.57;;
6973;SDS011;3527;52.376;8.990;2023-08-31T02:34:24;37.47;;;21.13;;
6973;SDS011;3527;52.376;8.990;2023-08-31T02:36:51;30.10;;;18.63;;
6973;SDS011;3527;52.376;8.990;2023-08-31T02:39:17;31.57;;;19.50;;
6973;SDS011;3527;52.376;8.990;2023-08-31T02:41:44;38.20;;;23.27;;
6973;SDS011;3527;52.376;8.990;2023-08-31T02:44:11;35.53;;;21.57;;
6973;SDS011;3527;52.376;8.990;2023-08-31T02:46:38;36.00;;;21.67;;
6973;SDS011;3527;52.376;8.990;2023-08-31T02:49:05;33.43;;;20.90;;
6973;SDS011;3527;52.376;8.990;2023-08-31T02:51:31;33.73;;;20.00;;
6973;SDS011;3527;52.376;8.990;2023-08-31T02:53:58;35.20;;;20.27;;
6973;SDS011;3527;52.376;8.990;2023-08-31T02:56:25;34.43;;;19.27;;
6973;SDS011;3527;52.376;8.990;2023-08-31T02:58:51;35.67;;;20.17;;
6973;SDS011;3527;52.376;8.990;2023-08-31T03:01:18;31.87;;;18.97;;
6973;SDS011;3527;52.376;8.990;2023-08-31T03:03:45;32.27;;;18.80;;
6973;SDS011;3527;52.376;8.990;2023-08-31T03:06:13;33.47;;;18.83;;
6973;SDS011;3527;52.376;8.990;2023-08-31T03:08:39;32.77;;;19.13;;
6973;SDS011;3527;52.376;8.990;2023-08-31T03:11:06;33.67;;;19.70;;
6973;SDS011;3527;52.376;8.990;2023-08-31T03:13:33;27.37;;;18.53;;
6973;SDS011;3527;52.376;8.990;2023-08-31T03:16:00;29.70;;;17.40;;
6973;SDS011;3527;52.376;8.990;2023-08-31T03:18:26;26.97;;;16.23;;
6973;SDS011;3527;52.376;8.990;2023-08-31T03:20:54;31.47;;;16.40;;
6973;SDS011;3527;52.376;8.990;2023-08-31T03:23:21;25.17;;;18.10;;
6973;SDS011;3527;52.376;8.990;2023-08-31T03:25:47;29.17;;;17.00;;
6973;SDS011;3527;52.376;8.990;2023-08-31T03:28:14;29.30;;;17.00;;
6973;SDS011;3527;52.376;8.990;2023-08-31T03:30:41;28.83;;;15.20;;
6973;SDS011;3527;52.376;8.990;2023-08-31T03:33:08;24.23;;;15.77;;
6973;SDS011;3527;52.376;8.990;2023-08-31T03:35:35;25.57;;;16.03;;
6973;SDS011;3527;52.376;8.990;2023-08-31T03:38:02;30.63;;;15.73;;
6973;SDS011;3527;52.376;8.990;2023-08-31T03:40:28;28.27;;;15.60;;
6973;SDS011;3527;52.376;8.990;2023-08-31T03:42:55;24.70;;;15.43;;
6973;SDS011;3527;52.376;8.990;2023-08-31T03:45:22;29.97;;;16.87;;
6973;SDS011;3527;52.376;8.990;2023-08-31T03:47:48;33.07;;;17.17;;
6973;SDS011;3527;52.376;8.990;2023-08-31T03:50:15;32.60;;;16.33;;
6973;SDS011;3527;52.376;8.990;2023-08-31T03:52:42;25.80;;;16.43;;
6973;SDS011;3527;52.376;8.990;2023-08-31T03:55:08;27.67;;;17.13;;
6973;SDS011;3527;52.376;8.990;2023-08-31T03:57:35;30.43;;;17.50;;
6973;SDS011;3527;52.376;8.990;2023-08-31T04:00:02;33.00;;;18.07;;
6973;SDS011;3527;52.376;8.990;2023-08-31T04:02:35;32.97;;;19.37;;
6973;SDS011;3527;52.376;8.990;2023-08-31T04:05:02;29.07;;;18.90;;
6973;SDS011;3527;52.376;8.990;2023-08-31T04:07:33;29.83;;;19.03;;
6973;SDS011;3527;52.376;8.990;2023-08-31T04:10:00;25.90;;;18.07;;
6973;SDS011;3527;52.376;8.990;2023-08-31T04:12:27;28.80;;;18.93;;
6973;SDS011;3527;52.376;8.990;2023-08-31T04:15:15;32.93;;;20.10;;
6973;SDS011;3527;52.376;8.990;2023-08-31T04:18:02;34.73;;;19.30;;
6973;SDS011;3527;52.376;8.990;2023-08-31T04:20:49;30.57;;;19.30;;
6973;SDS011;3527;52.376;8.990;2023-08-31T04:23:37;32.97;;;21.30;;
6973;SDS011;3527;52.376;8.990;2023-08-31T04:26:23;32.33;;;19.80;;
6973;SDS011;3527;52.376;8.990;2023-08-31T04:29:10;29.27;;;18.83;;
6973;SDS011;3527;52.376;8.990;2023-08-31T04:31:57;29.67;;;18.03;;
6973;SDS011;3527;52.376;8.990;2023-08-31T04:34:27;31.40;;;18.83;;
6973;SDS011;3527;52.376;8.990;2023-08-31T04:37:13;27.80;;;17.63;;
6973;SDS011;3527;52.376;8.990;2023-08-31T04:40:00;26.03;;;17.17;;
6973;SDS011;3527;52.376;8.990;2023-08-31T04:42:47;29.37;;;19.40;;
6973;SDS011;3527;52.376;8.990;2023-08-31T04:45:17;29.63;;;19.50;;
6973;SDS011;3527;52.376;8.990;2023-08-31T04:47:44;32.17;;;19.87;;
6973;SDS011;3527;52.376;8.990;2023-08-31T04:50:12;30.13;;;18.93;;
6973;SDS011;3527;52.376;8.990;2023-08-31T04:52:38;28.20;;;19.43;;
6973;SDS011;3527;52.376;8.990;2023-08-31T04:55:05;29.30;;;19.30;;
6973;SDS011;3527;52.376;8.990;2023-08-31T04:57:35;30.50;;;19.03;;
6973;SDS011;3527;52.376;8.990;2023-08-31T05:00:02;28.57;;;20.00;;
6973;SDS011;3527;52.376;8.990;2023-08-31T05:02:29;28.73;;;20.00;;
6973;SDS011;3527;52.376;8.990;2023-08-31T05:04:56;34.80;;;20.00;;
6973;SDS011;3527;52.376;8.990;2023-08-31T05:07:23;32.00;;;19.23;;
6973;SDS011;3527;52.376;8.990;2023-08-31T05:09:49;30.33;;;18.73;;
6973;SDS011;3527;52.376;8.990;2023-08-31T05:12:16;27.93;;;19.67;;
6973;SDS011;3527;52.376;8.990;2023-08-31T05:14:44;31.47;;;20.00;;
6973;SDS011;3527;52.376;8.990;2023-08-31T05:17:10;29.67;;;19.43;;
6973;SDS011;3527;52.376;8.990;2023-08-31T05:19:37;26.50;;;19.63;;
6973;SDS011;3527;52.376;8.990;2023-08-31T05:22:04;28.67;;;20.80;;
6973;SDS011;3527;52.376;8.990;2023-08-31T05:24:30;29.93;;;20.83;;
6973;SDS011;3527;52.376;8.990;2023-08-31T05:26:57;28.93;;;20.17;;
6973;SDS011;3527;52.376;8.990;2023-08-31T05:29:24;29.03;;;19.40;;
6973;SDS011;3527;52.376;8.990;2023-08-31T05:31:51;24.90;;;19.07;;
6973;SDS011;3527;52.376;8.990;2023-08-31T05:34:20;25.73;;;19.73;;
6973;SDS011;3527;52.376;8.990;2023-08-31T05:36:47;25.67;;;18.83;;
6973;SDS011;3527;52.376;8.990;2023-08-31T05:39:13;32.67;;;21.33;;
6973;SDS011;3527;52.376;8.990;2023-08-31T05:41:42;31.53;;;20.93;;
6973;SDS011;3527;52.376;8.990;2023-08-31T05:44:09;29.03;;;20.40;;
6973;SDS011;3527;52.376;8.990;2023-08-31T05:46:36;30.47;;;21.33;;
6973;SDS011;3527;52.376;8.990;2023-08-31T05:49:04;32.33;;;21.97;;
6973;SDS011;3527;52.376;8.990;2023-08-31T05:51:31;30.03;;;22.40;;
6973;SDS011;3527;52.376;8.990;2023-08-31T05:53:58;29.53;;;21.90;;
6973;SDS011;3527;52.376;8.990;2023-08-31T05:56:24;31.07;;;22.73;;
6973;SDS011;3527;52.376;8.990;2023-08-31T05:58:51;31.63;;;23.93;;
6973;SDS011;3527;52.376;8.990;2023-08-31T06:01:21;30.93;;;23.43;;
6973;SDS011;3527;52.376;8.990;2023-08-31T06:03:51;34.30;;;24.37;;
6973;SDS011;3527;52.376;8.990;2023-08-31T06:06:18;33.00;;;25.03;;
6973;SDS011;3527;52.376;8.990;2023-08-31T06:08:45;34.00;;;26.87;;
6973;SDS011;3527;52.376;8.990;2023-08-31T06:11:11;34.03;;;24.80;;
6973;SDS011;3527;52.376;8.990;2023-08-31T06:13:40;36.43;;;26.70;;
6973;SDS011;3527;52.376;8.990;2023-08-31T06:16:07;37.00;;;27.90;;
6973;SDS011;3527;52.376;8.990;2023-08-31T06:18:34;35.50;;;27.13;;
6973;SDS011;3527;52.376;8.990;2023-08-31T06:21:01;39.00;;;28.97;;
6973;SDS011;3527;52.376;8.990;2023-08-31T06:23:27;40.20;;;28.43;;
6973;SDS011;3527;52.376;8.990;2023-08-31T06:25:54;43.77;;;29.77;;
6973;SDS011;3527;52.376;8.990;2023-08-31T06:28:21;40.07;;;29.93;;
6973;SDS011;3527;52.376;8.990;2023-08-31T06:30:48;37.87;;;28.80;;
6973;SDS011;3527;52.376;8.990;2023-08-31T06:33:15;40.10;;;30.07;;
6973;SDS011;3527;52.376;8.990;2023-08-31T06:35:42;42.67;;;30.37;;
6973;SDS011;3527;52.376;8.990;2023-08-31T06:38:09;46.90;;;32.00;;
6973;SDS011;3527;52.376;8.990;2023-08-31T06:40:36;41.10;;;30.70;;
6973;SDS011;3527;52.376;8.990;2023-08-31T06:43:02;40.43;;;30.37;;
6973;SDS011;3527;52.376;8.990;2023-08-31T06:45:29;42.60;;;31.23;;
6973;SDS011;3527;52.376;8.990;2023-08-31T06:47:56;41.93;;;30.57;;
6973;SDS011;3527;52.376;8.990;2023-08-31T06:50:23;42.77;;;29.63;;
6973;SDS011;3527;52.376;8.990;2023-08-31T06:52:49;38.37;;;30.23;;
6973;SDS011;3527;52.376;8.990;2023-08-31T06:55:16;41.10;;;30.67;;
6973;SDS011;3527;52.376;8.990;2023-08-31T06:57:43;42.77;;;30.30;;
6973;SDS011;3527;52.376;8.990;2023-08-31T07:00:10;37.70;;;27.50;;
6973;SDS011;3527;52.376;8.990;2023-08-31T07:02:39;40.97;;;28.20;;
6973;SDS011;3527;52.376;8.990;2023-08-31T07:05:06;36.30;;;28.17;;
6973;SDS011;3527;52.376;8.990;2023-08-31T07:07:33;37.07;;;28.17;;
6973;SDS011;3527;52.376;8.990;2023-08-31T07:10:00;35.83;;;27.33;;
6973;SDS011;3527;52.376;8.990;2023-08-31T07:12:27;36.70;;;27.63;;
6973;SDS011;3527;52.376;8.990;2023-08-31T07:14:54;37.90;;;28.27;;
6973;SDS011;3527;52.376;8.990;2023-08-31T07:17:21;39.23;;;28.20;;
6973;SDS011;3527;52.376;8.990;2023-08-31T07:19:47;36.17;;;26.83;;
6973;SDS011;3527;52.376;8.990;2023-08-31T07:22:14;40.20;;;27.10;;
6973;SDS011;3527;52.376;8.990;2023-08-31T07:24:41;33.90;;;25.23;;
6973;SDS011;3527;52.376;8.990;2023-08-31T07:27:08;28.73;;;24.50;;
6973;SDS011;3527;52.376;8.990;2023-08-31T07:29:34;33.50;;;25.00;;
6973;SDS011;3527;52.376;8.990;2023-08-31T07:32:01;28.43;;;22.40;;
6973;SDS011;3527;52.376;8.990;2023-08-31T07:34:29;30.37;;;22.10;;
6973;SDS011;3527;52.376;8.990;2023-08-31T07:36:58;26.50;;;22.30;;
6973;SDS011;3527;52.376;8.990;2023-08-31T07:39:25;27.00;;;22.30;;
6973;SDS011;3527;52.376;8.990;2023-08-31T07:41:53;24.57;;;20.73;;
6973;SDS011;3527;52.376;8.990;2023-08-31T07:44:21;23.03;;;18.90;;
6973;SDS011;3527;52.376;8.990;2023-08-31T07:46:47;22.63;;;18.20;;
6973;SDS011;3527;52.376;8.990;2023-08-31T07:49:14;21.47;;;18.03;;
6973;SDS011;3527;52.376;8.990;2023-08-31T07:51:41;21.77;;;17.90;;
6973;SDS011;3527;52.376;8.990;2023-08-31T07:54:07;24.27;;;20.17;;
6973;SDS011;3527;52.376;8.990;2023-08-31T07:56:34;22.97;;;18.50;;
6973;SDS011;3527;52.376;8.990;2023-08-31T07:59:01;24.83;;;18.17;;
6973;SDS011;3527;52.376;8.990;2023-08-31T08:01:27;24.40;;;19.30;;
6973;SDS011;3527;52.376;8.990;2023-08-31T08:03:54;23.37;;;19.73;;
6973;SDS011;3527;52.376;8.990;2023-08-31T08:06:21;21.43;;;18.07;;
6973;SDS011;3527;52.376;8.990;2023-08-31T08:08:48;22.40;;;17.93;;
6973;SDS011;3527;52.376;8.990;2023-08-31T08:11:15;23.03;;;18.07;;
6973;SDS011;3527;52.376;8.990;2023-08-31T08:13:42;21.20;;;17.40;;
6973;SDS011;3527;52.376;8.990;2023-08-31T08:16:08;23.67;;;17.20;;
6973;SDS011;3527;52.376;8.990;2023-08-31T08:18:35;19.70;;;16.53;;
6973;SDS011;3527;52.376;8.990;2023-08-31T08:21:02;20.57;;;16.57;;
6973;SDS011;3527;52.376;8.990;2023-08-31T08:23:30;20.13;;;16.43;;
6973;SDS011;3527;52.376;8.990;2023-08-31T08:25:56;19.40;;;16.47;;
6973;SDS011;3527;52.376;8.990;2023-08-31T08:28:26;19.53;;;16.77;;
6973;SDS011;3527;52.376;8.990;2023-08-31T08:30:52;18.90;;;16.80;;
6973;SDS011;3527;52.376;8.990;2023-08-31T08:33:19;18.20;;;15.63;;
6973;SDS011;3527;52.376;8.990;2023-08-31T08:35:46;20.37;;;16.07;;
6973;SDS011;3527;52.376;8.990;2023-08-31T08:38:13;17.93;;;14.60;;
6973;SDS011;3527;52.376;8.990;2023-08-31T08:40:40;16.80;;;14.40;;
6973;SDS011;3527;52.376;8.990;2023-08-31T08:43:07;15.63;;;13.83;;
6973;SDS011;3527;52.376;8.990;2023-08-31T08:45:37;17.67;;;14.03;;
6973;SDS011;3527;52.376;8.990;2023-08-31T08:48:05;16.23;;;13.30;;
6973;SDS011;3527;52.376;8.990;2023-08-31T08:50:32;15.67;;;13.63;;
6973;SDS011;3527;52.376;8.990;2023-08-31T08:53:01;15.27;;;13.23;;
6973;SDS011;3527;52.376;8.990;2023-08-31T08:55:28;14.80;;;12.73;;
6973;SDS011;3527;52.376;8.990;2023-08-31T08:57:55;17.73;;;14.10;;
6973;SDS011;3527;52.376;8.990;2023-08-31T09:00:22;15.47;;;13.03;;
6973;SDS011;3527;52.376;8.990;2023-08-31T09:02:48;15.50;;;13.07;;
6973;SDS011;3527;52.376;8.990;2023-08-31T09:05:15;14.57;;;11.53;;
6973;SDS011;3527;52.376;8.990;2023-08-31T09:10:38;15.17;;;12.37;;
6973;SDS011;3527;52.376;8.990;2023-08-31T09:13:08;16.53;;;12.77;;
6973;SDS011;3527;52.376;8.990;2023-08-31T09:15:42;13.70;;;12.30;;
6973;SDS011;3527;52.376;8.990;2023-08-31T09:18:16;13.13;;;11.47;;
6973;SDS011;3527;52.376;8.990;2023-08-31T09:20:43;11.83;;;9.87;;
6973;SDS011;3527;52.376;8.990;2023-08-31T09:23:11;11.80;;;10.57;;
6973;SDS011;3527;52.376;8.990;2023-08-31T09:25:45;14.70;;;11.37;;
6973;SDS011;3527;52.376;8.990;2023-08-31T09:28:12;12.53;;;9.20;;
6973;SDS011;3527;52.376;8.990;2023-08-31T09:30:39;11.27;;;9.83;;
6973;SDS011;3527;52.376;8.990;2023-08-31T09:33:07;11.97;;;10.77;;
6973;SDS011;3527;52.376;8.990;2023-08-31T09:35:41;12.47;;;10.83;;
6973;SDS011;3527;52.376;8.990;2023-08-31T09:38:12;12.43;;;10.03;;
6973;SDS011;3527;52.376;8.990;2023-08-31T09:40:40;11.67;;;9.27;;
6973;SDS011;3527;52.376;8.990;2023-08-31T09:43:11;10.93;;;9.13;;
6973;SDS011;3527;52.376;8.990;2023-08-31T09:45:38;10.83;;;8.60;;
6973;SDS011;3527;52.376;8.990;2023-08-31T09:48:11;10.67;;;8.40;;
6973;SDS011;3527;52.376;8.990;2023-08-31T09:50:40;9.87;;;7.87;;
6973;SDS011;3527;52.376;8.990;2023-08-31T09:53:08;9.57;;;7.93;;
6973;SDS011;3527;52.376;8.990;2023-08-31T09:55:38;9.43;;;8.40;;
6973;SDS011;3527;52.376;8.990;2023-08-31T09:58:06;9.10;;;7.73;;
6973;SDS011;3527;52.376;8.990;2023-08-31T10:00:42;8.27;;;6.60;;
6973;SDS011;3527;52.376;8.990;2023-08-31T10:03:08;8.17;;;6.17;;
6973;SDS011;3527;52.376;8.990;2023-08-31T10:05:38;7.67;;;5.63;;
6973;SDS011;3527;52.376;8.990;2023-08-31T10:08:05;8.63;;;6.60;;
6973;SDS011;3527;52.376;8.990;2023-08-31T10:10:33;7.73;;;6.43;;
6973;SDS011;3527;52.376;8.990;2023-08-31T10:13:01;7.57;;;6.20;;
6973;SDS011;3527;52.376;8.990;2023-08-31T10:15:31;7.10;;;6.13;;
6973;SDS011;3527;52.376;8.990;2023-08-31T10:17:59;7.03;;;5.57;;
6973;SDS011;3527;52.376;8.990;2023-08-31T10:20:26;7.53;;;4.90;;
6973;SDS011;3527;52.376;8.990;2023-08-31T10:22:58;7.63;;;4.90;;
6973;SDS011;3527;52.376;8.990;2023-08-31T10:25:24;8.80;;;5.37;;
6973;SDS011;3527;52.376;8.990;2023-08-31T10:27:53;4.87;;;4.37;;
6973;SDS011;3527;52.376;8.990;2023-08-31T10:35:49;7.07;;;4.30;;
6973;SDS011;3527;52.376;8.990;2023-08-31T10:38:23;6.60;;;3.90;;
6973;SDS011;3527;52.376;8.990;2023-08-31T10:48:49;3.60;;;2.90;;
6973;SDS011;3527;52.376;8.990;2023-08-31T10:51:16;4.60;;;3.00;;
6973;SDS011;3527;52.376;8.990;2023-08-31T10:53:42;4.43;;;3.10;;
6973;SDS011;3527;52.376;8.990;2023-08-31T10:56:09;3.93;;;2.93;;
6973;SDS011;3527;52.376;8.990;2023-08-31T10:58:36;3.73;;;2.90;;
6973;SDS011;3527;52.376;8.990;2023-08-31T11:01:02;3.57;;;2.70;;
6973;SDS011;3527;52.376;8.990;2023-08-31T11:03:30;4.07;;;2.50;;
6973;SDS011;3527;52.376;8.990;2023-08-31T11:05:56;4.10;;;2.50;;
6973;SDS011;3527;52.376;8.990;2023-08-31T11:08:24;4.70;;;2.30;;
6973;SDS011;3527;52.376;8.990;2023-08-31T11:10:51;3.83;;;2.00;;
6973;SDS011;3527;52.376;8.990;2023-08-31T11:13:21;5.73;;;2.30;;
6973;SDS011;3527;52.376;8.990;2023-08-31T11:15:49;3.67;;;2.00;;
6973;SDS011;3527;52.376;8.990;2023-08-31T11:18:16;4.20;;;1.97;;
6973;SDS011;3527;52.376;8.990;2023-08-31T11:20:46;4.13;;;2.27;;
6973;SDS011;3527;52.376;8.990;2023-08-31T11:23:14;3.20;;;2.00;;
6973;SDS011;3527;52.376;8.990;2023-08-31T11:25:42;3.50;;;2.17;;
6973;SDS011;3527;52.376;8.990;2023-08-31T11:28:08;4.97;;;2.07;;
6973;SDS011;3527;52.376;8.990;2023-08-31T11:30:36;2.70;;;1.47;;
6973;SDS011;3527;52.376;8.990;2023-08-31T11:33:03;7.13;;;1.90;;
6973;SDS011;3527;52.376;8.990;2023-08-31T11:35:35;5.00;;;2.10;;
6973;SDS011;3527;52.376;8.990;2023-08-31T11:38:03;2.93;;;1.70;;
6973;SDS011;3527;52.376;8.990;2023-08-31T11:40:30;2.60;;;2.03;;
6973;SDS011;3527;52.376;8.990;2023-08-31T11:42:57;3.70;;;1.80;;
6973;SDS011;3527;52.376;8.990;2023-08-31T11:45:24;2.93;;;1.53;;
6973;SDS011;3527;52.376;8.990;2023-08-31T11:47:51;4.20;;;1.80;;
6973;SDS011;3527;52.376;8.990;2023-08-31T11:50:19;2.43;;;1.40;;
6973;SDS011;3527;52.376;8.990;2023-08-31T11:52:46;2.97;;;1.70;;
6973;SDS011;3527;52.376;8.990;2023-08-31T11:55:14;2.63;;;1.70;;
6973;SDS011;3527;52.376;8.990;2023-08-31T11:57:47;1.97;;;1.50;;
6973;SDS011;3527;52.376;8.990;2023-08-31T12:00:17;4.00;;;1.73;;
6973;SDS011;3527;52.376;8.990;2023-08-31T12:02:43;3.00;;;1.60;;
6973;SDS011;3527;52.376;8.990;2023-08-31T12:05:12;2.47;;;1.50;;
6973;SDS011;3527;52.376;8.990;2023-08-31T12:07:39;2.20;;;1.30;;
6973;SDS011;3527;52.376;8.990;2023-08-31T12:10:09;2.30;;;1.10;;
6973;SDS011;3527;52.376;8.990;2023-08-31T12:12:36;2.57;;;1.00;;
6973;SDS011;3527;52.376;8.990;2023-08-31T12:15:04;2.47;;;1.00;;
6973;SDS011;3527;52.376;8.990;2023-08-31T12:17:31;3.93;;;1.33;;
6973;SDS011;3527;52.376;8.990;2023-08-31T12:20:02;3.30;;;1.30;;
6973;SDS011;3527;52.376;8.990;2023-08-31T12:22:30;1.80;;;1.10;;
6973;SDS011;3527;52.376;8.990;2023-08-31T12:24:57;1.77;;;1.10;;
6973;SDS011;3527;52.376;8.990;2023-08-31T12:27:23;2.57;;;1.20;;
6973;SDS011;3527;52.376;8.990;2023-08-31T12:29:50;2.90;;;1.30;;
6973;SDS011;3527;52.376;8.990;2023-08-31T12:32:17;1.60;;;1.03;;
6973;SDS011;3527;52.376;8.990;2023-08-31T12:34:46;2.17;;;1.03;;
6973;SDS011;3527;52.376;8.990;2023-08-31T12:37:13;1.87;;;1.00;;
6973;SDS011;3527;52.376;8.990;2023-08-31T12:39:39;3.33;;;1.13;;
6973;SDS011;3527;52.376;8.990;2023-08-31T12:42:08;2.43;;;1.10;;
6973;SDS011;3527;52.376;8.990;2023-08-31T12:44:48;2.40;;;1.30;;
6973;SDS011;3527;52.376;8.990;2023-08-31T12:47:15;3.60;;;1.20;;
6973;SDS011;3527;52.376;8.990;2023-08-31T12:49:42;1.40;;;0.80;;
6973;SDS011;3527;52.376;8.990;2023-08-31T12:52:08;2.40;;;1.00;;
6973;SDS011;3527;52.376;8.990;2023-08-31T12:54:35;3.60;;;0.73;;
6973;SDS011;3527;52.376;8.990;2023-08-31T12:57:01;3.80;;;1.07;;
6973;SDS011;3527;52.376;8.990;2023-08-31T12:59:29;1.70;;;0.70;;
6973;SDS011;3527;52.376;8.990;2023-08-31T13:01:55;6.57;;;1.47;;
6973;SDS011;3527;52.376;8.990;2023-08-31T13:04:23;4.27;;;1.53;;
6973;SDS011;3527;52.376;8.990;2023-08-31T13:06:50;2.50;;;0.90;;
6973;SDS011;3527;52.376;8.990;2023-08-31T13:09:17;3.03;;;0.80;;
6973;SDS011;3527;52.376;8.990;2023-08-31T13:11:44;2.63;;;0.60;;
6973;SDS011;3527;52.376;8.990;2023-08-31T13:14:10;1.67;;;0.80;;
6973;SDS011;3527;52.376;8.990;2023-08-31T13:16:37;1.10;;;0.60;;
6973;SDS011;3527;52.376;8.990;2023-08-31T13:19:07;1.90;;;0.70;;
6973;SDS011;3527;52.376;8.990;2023-08-31T13:21:33;1.13;;;0.80;;
6973;SDS011;3527;52.376;8.990;2023-08-31T13:24:00;1.30;;;0.80;;
6973;SDS011;3527;52.376;8.990;2023-08-31T13:26:27;1.83;;;0.90;;
6973;SDS011;3527;52.376;8.990;2023-08-31T13:28:53;1.50;;;0.90;;
6973;SDS011;3527;52.376;8.990;2023-08-31T13:31:21;3.77;;;1.30;;
6973;SDS011;3527;52.376;8.990;2023-08-31T13:33:47;1.53;;;0.80;;
6973;SDS011;3527;52.376;8.990;2023-08-31T13:36:14;1.90;;;0.90;;
6973;SDS011;3527;52.376;8.990;2023-08-31T13:38:41;2.87;;;1.10;;
6973;SDS011;3527;52.376;8.990;2023-08-31T13:41:08;1.40;;;0.90;;
6973;SDS011;3527;52.376;8.990;2023-08-31T13:43:35;1.47;;;1.00;;
6973;SDS011;3527;52.376;8.990;2023-08-31T13:46:01;2.53;;;1.20;;
6973;SDS011;3527;52.376;8.990;2023-08-31T13:48:28;2.13;;;1.03;;
6973;SDS011;3527;52.376;8.990;2023-08-31T13:50:58;3.40;;;1.40;;
6973;SDS011;3527;52.376;8.990;2023-08-31T13:53:25;3.53;;;1.40;;
6973;SDS011;3527;52.376;8.990;2023-08-31T13:55:51;5.93;;;1.20;;
6973;SDS011;3527;52.376;8.990;2023-08-31T13:58:18;1.80;;;1.20;;
6973;SDS011;3527;52.376;8.990;2023-08-31T14:00:44;1.87;;;0.97;;
6973;SDS011;3527;52.376;8.990;2023-08-31T14:03:12;4.77;;;1.57;;
6973;SDS011;3527;52.376;8.990;2023-08-31T14:05:39;3.77;;;1.07;;
6973;SDS011;3527;52.376;8.990;2023-08-31T14:08:05;3.00;;;1.10;;
6973;SDS011;3527;52.376;8.990;2023-08-31T14:10:32;2.57;;;1.27;;
6973;SDS011;3527;52.376;8.990;2023-08-31T14:13:02;1.60;;;0.97;;
6973;SDS011;3527;52.376;8.990;2023-08-31T14:15:28;1.73;;;1.00;;
6973;SDS011;3527;52.376;8.990;2023-08-31T14:17:55;4.37;;;1.07;;
6973;SDS011;3527;52.376;8.990;2023-08-31T14:20:22;2.60;;;0.90;;
6973;SDS011;3527;52.376;8.990;2023-08-31T14:22:49;1.70;;;1.00;;
6973;SDS011;3527;52.376;8.990;2023-08-31T14:25:16;4.67;;;0.93;;
6973;SDS011;3527;52.376;8.990;2023-08-31T14:27:43;2.07;;;1.00;;
6973;SDS011;3527;52.376;8.990;2023-08-31T14:30:10;2.20;;;1.00;;
6973;SDS011;3527;52.376;8.990;2023-08-31T14:32:37;3.77;;;1.37;;
6973;SDS011;3527;52.376;8.990;2023-08-31T14:35:03;2.67;;;1.03;;
6973;SDS011;3527;52.376;8.990;2023-08-31T14:37:32;2.30;;;1.10;;
6973;SDS011;3527;52.376;8.990;2023-08-31T14:39:59;4.00;;;1.23;;
6973;SDS011;3527;52.376;8.990;2023-08-31T14:42:26;3.70;;;1.30;;
6973;SDS011;3527;52.376;8.990;2023-08-31T14:44:52;2.70;;;1.20;;
6973;SDS011;3527;52.376;8.990;2023-08-31T14:47:19;4.57;;;1.30;;
6973;SDS011;3527;52.376;8.990;2023-08-31T14:49:46;3.60;;;1.50;;
6973;SDS011;3527;52.376;8.990;2023-08-31T14:52:12;4.20;;;1.20;;
6973;SDS011;3527;52.376;8.990;2023-08-31T14:54:39;3.73;;;1.10;;
6973;SDS011;3527;52.376;8.990;2023-08-31T14:57:06;3.07;;;1.40;;
6973;SDS011;3527;52.376;8.990;2023-08-31T14:59:32;2.40;;;1.20;;
6973;SDS011;3527;52.376;8.990;2023-08-31T15:01:59;5.77;;;1.70;;
6973;SDS011;3527;52.376;8.990;2023-08-31T15:04:28;3.73;;;1.53;;
6973;SDS011;3527;52.376;8.990;2023-08-31T15:06:55;4.03;;;1.20;;
6973;SDS011;3527;52.376;8.990;2023-08-31T15:09:22;3.03;;;1.50;;
6973;SDS011;3527;52.376;8.990;2023-08-31T15:11:49;5.73;;;1.40;;
6973;SDS011;3527;52.376;8.990;2023-08-31T15:14:16;2.77;;;1.30;;
6973;SDS011;3527;52.376;8.990;2023-08-31T15:16:43;4.00;;;1.50;;
6973;SDS011;3527;52.376;8.990;2023-08-31T15:19:09;2.67;;;1.40;;
6973;SDS011;3527;52.376;8.990;2023-08-31T15:21:36;2.73;;;1.30;;
6973;SDS011;3527;52.376;8.990;2023-08-31T15:24:04;2.77;;;1.37;;
6973;SDS011;3527;52.376;8.990;2023-08-31T15:26:31;3.10;;;1.47;;
6973;SDS011;3527;52.376;8.990;2023-08-31T15:28:57;2.50;;;1.33;;
6973;SDS011;3527;52.376;8.990;2023-08-31T15:31:24;3.70;;;1.60;;